Shelburne, Vermont
Current Conditions -  °F | °C
As of 9:54 AM on Wednesday 26 Nov 2014 (Local Time) from KBTV Reporting Station
Overcast Overcast  
Wind Chill: 26°   Ceiling: 14000
Heat Index: 34°   Visibility: 10mi
Dew Point: 21°   Wind: 10mph
Humidity: 59%   Direction: 360°N
Pressure: 30.23"   Gusts: NA
Location:  44.38°N, 73.23°W
Report Text: KBTV 261454Z 36009KT 10SM FEW036 SCT120 OVC140 01/M06 A3023 RMK AO2 SLP239 VIRGA SE-W ACSL ALQDS T00111061 50002
Loading
Personal Weather Stations






























Interactive Weather Map New forecast layout! Learn more

10-Day Weather Forecast

Advertisements
Track Severe Weather on mobile